sensor_id;sensor_type;location;lat;lon;timestamp;P1;durP1;ratioP1;P2;durP2;ratioP2
27163;SDS011;14685;50.618;7.024;2022-09-27T00:00:35;4.30;;;1.60;;
27163;SDS011;14685;50.618;7.024;2022-09-27T00:03:02;3.70;;;1.30;;
27163;SDS011;14685;50.618;7.024;2022-09-27T00:05:30;3.15;;;1.23;;
27163;SDS011;14685;50.618;7.024;2022-09-27T00:07:57;4.90;;;1.80;;
27163;SDS011;14685;50.618;7.024;2022-09-27T00:10:24;2.78;;;1.70;;
27163;SDS011;14685;50.618;7.024;2022-09-27T00:12:51;2.35;;;1.20;;
27163;SDS011;14685;50.618;7.024;2022-09-27T00:15:18;1.63;;;1.10;;
27163;SDS011;14685;50.618;7.024;2022-09-27T00:17:45;4.68;;;1.20;;
27163;SDS011;14685;50.618;7.024;2022-09-27T00:20:18;1.60;;;1.20;;
27163;SDS011;14685;50.618;7.024;2022-09-27T00:22:47;2.10;;;1.30;;
27163;SDS011;14685;50.618;7.024;2022-09-27T00:25:14;4.85;;;1.35;;
27163;SDS011;14685;50.618;7.024;2022-09-27T00:27:42;2.63;;;1.20;;
27163;SDS011;14685;50.618;7.024;2022-09-27T00:30:10;3.80;;;1.20;;
27163;SDS011;14685;50.618;7.024;2022-09-27T00:32:38;3.50;;;1.67;;
27163;SDS011;14685;50.618;7.024;2022-09-27T00:35:05;4.38;;;1.80;;
27163;SDS011;14685;50.618;7.024;2022-09-27T00:37:34;3.60;;;1.52;;
27163;SDS011;14685;50.618;7.024;2022-09-27T00:40:00;2.92;;;1.30;;
27163;SDS011;14685;50.618;7.024;2022-09-27T00:42:28;2.42;;;1.10;;
27163;SDS011;14685;50.618;7.024;2022-09-27T00:45:00;2.38;;;1.50;;
27163;SDS011;14685;50.618;7.024;2022-09-27T00:50:18;4.75;;;1.45;;
27163;SDS011;14685;50.618;7.024;2022-09-27T00:55:53;1.65;;;1.05;;
27163;SDS011;14685;50.618;7.024;2022-09-27T00:58:23;6.20;;;1.73;;
27163;SDS011;14685;50.618;7.024;2022-09-27T01:00:57;7.60;;;1.27;;
27163;SDS011;14685;50.618;7.024;2022-09-27T01:03:34;2.95;;;1.40;;
27163;SDS011;14685;50.618;7.024;2022-09-27T01:06:19;2.53;;;1.35;;
27163;SDS011;14685;50.618;7.024;2022-09-27T01:08:47;2.28;;;1.13;;
27163;SDS011;14685;50.618;7.024;2022-09-27T01:26:20;1.67;;;0.80;;
27163;SDS011;14685;50.618;7.024;2022-09-27T01:34:31;3.08;;;0.70;;
27163;SDS011;14685;50.618;7.024;2022-09-27T01:39:56;1.50;;;0.73;;
27163;SDS011;14685;50.618;7.024;2022-09-27T01:42:46;1.35;;;0.70;;
27163;SDS011;14685;50.618;7.024;2022-09-27T01:45:30;2.67;;;0.70;;
27163;SDS011;14685;50.618;7.024;2022-09-27T01:48:13;0.98;;;0.50;;
27163;SDS011;14685;50.618;7.024;2022-09-27T01:53:35;2.40;;;0.80;;
27163;SDS011;14685;50.618;7.024;2022-09-27T01:56:12;3.53;;;0.63;;
27163;SDS011;14685;50.618;7.024;2022-09-27T01:58:45;3.13;;;0.70;;
27163;SDS011;14685;50.618;7.024;2022-09-27T02:01:27;0.70;;;0.50;;
27163;SDS011;14685;50.618;7.024;2022-09-27T02:03:58;0.70;;;0.40;;
27163;SDS011;14685;50.618;7.024;2022-09-27T02:06:32;1.35;;;0.60;;
27163;SDS011;14685;50.618;7.024;2022-09-27T02:09:07;0.98;;;0.60;;
27163;SDS011;14685;50.618;7.024;2022-09-27T02:11:40;1.02;;;0.65;;
27163;SDS011;14685;50.618;7.024;2022-09-27T02:16:51;1.15;;;0.50;;
27163;SDS011;14685;50.618;7.024;2022-09-27T02:22:17;1.85;;;0.57;;
27163;SDS011;14685;50.618;7.024;2022-09-27T02:25:00;0.93;;;0.60;;
27163;SDS011;14685;50.618;7.024;2022-09-27T02:27:39;2.38;;;1.08;;
27163;SDS011;14685;50.618;7.024;2022-09-27T02:30:21;1.77;;;1.33;;
27163;SDS011;14685;50.618;7.024;2022-09-27T02:32:48;3.08;;;0.77;;
27163;SDS011;14685;50.618;7.024;2022-09-27T02:35:21;3.53;;;0.95;;
27163;SDS011;14685;50.618;7.024;2022-09-27T02:37:53;3.65;;;1.40;;
27163;SDS011;14685;50.618;7.024;2022-09-27T02:40:21;5.18;;;2.05;;
27163;SDS011;14685;50.618;7.024;2022-09-27T02:42:48;2.78;;;1.40;;
27163;SDS011;14685;50.618;7.024;2022-09-27T02:45:17;4.63;;;1.63;;
27163;SDS011;14685;50.618;7.024;2022-09-27T02:47:48;5.70;;;1.90;;
27163;SDS011;14685;50.618;7.024;2022-09-27T02:51:12;1.83;;;1.42;;
27163;SDS011;14685;50.618;7.024;2022-09-27T02:56:24;7.82;;;3.22;;
27163;SDS011;14685;50.618;7.024;2022-09-27T03:01:48;3.70;;;2.10;;
27163;SDS011;14685;50.618;7.024;2022-09-27T03:04:43;4.93;;;2.50;;
27163;SDS011;14685;50.618;7.024;2022-09-27T03:07:23;4.38;;;2.42;;
27163;SDS011;14685;50.618;7.024;2022-09-27T03:09:52;6.38;;;2.22;;
27163;SDS011;14685;50.618;7.024;2022-09-27T03:12:19;2.88;;;1.60;;
27163;SDS011;14685;50.618;7.024;2022-09-27T03:14:54;6.50;;;2.30;;
27163;SDS011;14685;50.618;7.024;2022-09-27T03:17:24;6.15;;;3.00;;
27163;SDS011;14685;50.618;7.024;2022-09-27T03:19:52;8.00;;;3.63;;
27163;SDS011;14685;50.618;7.024;2022-09-27T03:22:20;4.25;;;1.70;;
27163;SDS011;14685;50.618;7.024;2022-09-27T03:24:47;4.57;;;2.45;;
27163;SDS011;14685;50.618;7.024;2022-09-27T03:27:15;7.25;;;3.55;;
27163;SDS011;14685;50.618;7.024;2022-09-27T03:29:42;7.13;;;3.17;;
27163;SDS011;14685;50.618;7.024;2022-09-27T03:32:09;4.68;;;2.70;;
27163;SDS011;14685;50.618;7.024;2022-09-27T03:34:36;5.35;;;2.53;;
27163;SDS011;14685;50.618;7.024;2022-09-27T03:37:03;7.50;;;3.67;;
27163;SDS011;14685;50.618;7.024;2022-09-27T03:39:30;10.13;;;4.68;;
27163;SDS011;14685;50.618;7.024;2022-09-27T03:41:56;7.72;;;2.38;;
27163;SDS011;14685;50.618;7.024;2022-09-27T03:44:23;3.58;;;2.13;;
27163;SDS011;14685;50.618;7.024;2022-09-27T03:46:50;5.97;;;3.17;;
27163;SDS011;14685;50.618;7.024;2022-09-27T03:49:17;7.43;;;3.25;;
27163;SDS011;14685;50.618;7.024;2022-09-27T03:51:44;6.65;;;3.33;;
27163;SDS011;14685;50.618;7.024;2022-09-27T03:54:13;5.25;;;2.90;;
27163;SDS011;14685;50.618;7.024;2022-09-27T03:56:39;5.07;;;2.22;;
27163;SDS011;14685;50.618;7.024;2022-09-27T03:59:06;5.72;;;1.70;;
27163;SDS011;14685;50.618;7.024;2022-09-27T04:01:33;3.08;;;1.38;;
27163;SDS011;14685;50.618;7.024;2022-09-27T04:04:03;3.50;;;1.30;;
27163;SDS011;14685;50.618;7.024;2022-09-27T04:06:36;4.70;;;2.03;;
27163;SDS011;14685;50.618;7.024;2022-09-27T04:09:04;4.50;;;2.00;;
27163;SDS011;14685;50.618;7.024;2022-09-27T04:11:33;3.45;;;2.00;;
27163;SDS011;14685;50.618;7.024;2022-09-27T04:14:00;2.97;;;2.10;;
27163;SDS011;14685;50.618;7.024;2022-09-27T04:16:27;5.32;;;3.08;;
27163;SDS011;14685;50.618;7.024;2022-09-27T04:18:54;5.20;;;2.05;;
27163;SDS011;14685;50.618;7.024;2022-09-27T04:21:22;4.20;;;1.73;;
27163;SDS011;14685;50.618;7.024;2022-09-27T04:23:50;2.42;;;1.50;;
27163;SDS011;14685;50.618;7.024;2022-09-27T04:26:16;4.28;;;1.92;;
27163;SDS011;14685;50.618;7.024;2022-09-27T04:28:43;4.03;;;1.70;;
27163;SDS011;14685;50.618;7.024;2022-09-27T04:31:17;3.70;;;1.42;;
27163;SDS011;14685;50.618;7.024;2022-09-27T04:33:45;3.22;;;0.98;;
27163;SDS011;14685;50.618;7.024;2022-09-27T04:36:18;2.92;;;1.38;;
27163;SDS011;14685;50.618;7.024;2022-09-27T04:38:55;3.28;;;1.30;;
27163;SDS011;14685;50.618;7.024;2022-09-27T04:41:25;1.55;;;1.33;;
27163;SDS011;14685;50.618;7.024;2022-09-27T04:43:54;2.88;;;1.40;;
27163;SDS011;14685;50.618;7.024;2022-09-27T04:46:24;3.03;;;1.10;;
27163;SDS011;14685;50.618;7.024;2022-09-27T04:48:53;2.92;;;1.10;;
27163;SDS011;14685;50.618;7.024;2022-09-27T04:51:19;1.52;;;1.00;;
27163;SDS011;14685;50.618;7.024;2022-09-27T04:53:46;2.50;;;1.02;;
27163;SDS011;14685;50.618;7.024;2022-09-27T04:56:13;2.13;;;1.70;;
27163;SDS011;14685;50.618;7.024;2022-09-27T04:58:41;4.38;;;2.10;;
27163;SDS011;14685;50.618;7.024;2022-09-27T05:01:08;1.67;;;1.30;;
27163;SDS011;14685;50.618;7.024;2022-09-27T05:03:36;3.83;;;1.40;;
27163;SDS011;14685;50.618;7.024;2022-09-27T05:06:03;2.22;;;1.23;;
27163;SDS011;14685;50.618;7.024;2022-09-27T05:08:30;2.40;;;1.20;;
27163;SDS011;14685;50.618;7.024;2022-09-27T05:10:57;3.10;;;1.52;;
27163;SDS011;14685;50.618;7.024;2022-09-27T05:13:26;5.40;;;1.90;;
27163;SDS011;14685;50.618;7.024;2022-09-27T05:15:53;5.50;;;1.75;;
27163;SDS011;14685;50.618;7.024;2022-09-27T05:18:20;4.65;;;1.15;;
27163;SDS011;14685;50.618;7.024;2022-09-27T05:20:47;1.00;;;0.90;;
27163;SDS011;14685;50.618;7.024;2022-09-27T05:23:14;1.05;;;0.70;;
27163;SDS011;14685;50.618;7.024;2022-09-27T05:25:43;1.48;;;0.80;;
27163;SDS011;14685;50.618;7.024;2022-09-27T05:28:11;2.58;;;0.88;;
27163;SDS011;14685;50.618;7.024;2022-09-27T05:30:38;1.77;;;0.90;;
27163;SDS011;14685;50.618;7.024;2022-09-27T05:33:05;1.13;;;1.02;;
27163;SDS011;14685;50.618;7.024;2022-09-27T05:35:32;1.15;;;0.85;;
27163;SDS011;14685;50.618;7.024;2022-09-27T05:38:01;2.80;;;0.75;;
27163;SDS011;14685;50.618;7.024;2022-09-27T05:40:28;4.03;;;1.30;;
27163;SDS011;14685;50.618;7.024;2022-09-27T05:43:12;2.45;;;1.13;;
27163;SDS011;14685;50.618;7.024;2022-09-27T05:45:40;3.95;;;1.70;;
27163;SDS011;14685;50.618;7.024;2022-09-27T05:48:08;3.88;;;1.10;;
27163;SDS011;14685;50.618;7.024;2022-09-27T05:50:38;4.22;;;2.05;;
27163;SDS011;14685;50.618;7.024;2022-09-27T05:53:05;2.47;;;1.15;;
27163;SDS011;14685;50.618;7.024;2022-09-27T05:55:32;2.92;;;1.40;;
27163;SDS011;14685;50.618;7.024;2022-09-27T05:58:00;4.90;;;1.48;;
27163;SDS011;14685;50.618;7.024;2022-09-27T06:00:31;2.40;;;0.90;;
27163;SDS011;14685;50.618;7.024;2022-09-27T06:03:03;3.60;;;0.80;;
27163;SDS011;14685;50.618;7.024;2022-09-27T06:05:35;5.95;;;1.35;;
27163;SDS011;14685;50.618;7.024;2022-09-27T06:08:05;2.65;;;0.80;;
27163;SDS011;14685;50.618;7.024;2022-09-27T06:10:34;2.58;;;0.77;;
27163;SDS011;14685;50.618;7.024;2022-09-27T06:13:06;5.45;;;0.95;;
27163;SDS011;14685;50.618;7.024;2022-09-27T06:15:39;1.60;;;0.70;;
27163;SDS011;14685;50.618;7.024;2022-09-27T06:18:08;2.53;;;1.38;;
27163;SDS011;14685;50.618;7.024;2022-09-27T06:20:41;0.88;;;0.80;;
27163;SDS011;14685;50.618;7.024;2022-09-27T06:23:15;2.08;;;1.10;;
27163;SDS011;14685;50.618;7.024;2022-09-27T06:25:48;3.35;;;2.25;;
27163;SDS011;14685;50.618;7.024;2022-09-27T06:28:17;2.47;;;0.93;;
27163;SDS011;14685;50.618;7.024;2022-09-27T06:30:45;3.28;;;0.80;;
27163;SDS011;14685;50.618;7.024;2022-09-27T06:33:15;3.50;;;0.75;;
27163;SDS011;14685;50.618;7.024;2022-09-27T06:35:45;3.35;;;0.85;;
27163;SDS011;14685;50.618;7.024;2022-09-27T06:38:15;2.42;;;0.70;;
27163;SDS011;14685;50.618;7.024;2022-09-27T06:40:46;2.30;;;0.80;;
27163;SDS011;14685;50.618;7.024;2022-09-27T06:43:18;3.67;;;0.90;;
27163;SDS011;14685;50.618;7.024;2022-09-27T06:45:46;1.10;;;0.73;;
27163;SDS011;14685;50.618;7.024;2022-09-27T06:48:13;1.13;;;0.68;;
27163;SDS011;14685;50.618;7.024;2022-09-27T06:50:42;1.65;;;0.70;;
27163;SDS011;14685;50.618;7.024;2022-09-27T06:53:11;4.63;;;0.80;;
27163;SDS011;14685;50.618;7.024;2022-09-27T06:55:41;1.75;;;0.63;;
27163;SDS011;14685;50.618;7.024;2022-09-27T06:58:09;1.30;;;0.80;;
27163;SDS011;14685;50.618;7.024;2022-09-27T07:00:55;3.42;;;0.80;;
27163;SDS011;14685;50.618;7.024;2022-09-27T07:03:24;2.72;;;0.80;;
27163;SDS011;14685;50.618;7.024;2022-09-27T07:06:03;1.50;;;0.80;;
27163;SDS011;14685;50.618;7.024;2022-09-27T07:08:31;1.23;;;0.70;;
27163;SDS011;14685;50.618;7.024;2022-09-27T07:11:03;1.65;;;0.65;;
27163;SDS011;14685;50.618;7.024;2022-09-27T07:13:32;2.72;;;0.80;;
27163;SDS011;14685;50.618;7.024;2022-09-27T07:16:02;2.00;;;0.75;;
27163;SDS011;14685;50.618;7.024;2022-09-27T07:18:29;2.83;;;0.85;;
27163;SDS011;14685;50.618;7.024;2022-09-27T07:20:57;2.80;;;0.82;;
27163;SDS011;14685;50.618;7.024;2022-09-27T07:23:27;3.72;;;1.05;;
27163;SDS011;14685;50.618;7.024;2022-09-27T07:25:54;2.97;;;0.73;;
27163;SDS011;14685;50.618;7.024;2022-09-27T07:28:23;2.78;;;1.30;;
27163;SDS011;14685;50.618;7.024;2022-09-27T07:30:54;2.00;;;1.20;;
27163;SDS011;14685;50.618;7.024;2022-09-27T07:33:22;2.55;;;0.85;;
27163;SDS011;14685;50.618;7.024;2022-09-27T07:35:49;1.98;;;0.90;;
27163;SDS011;14685;50.618;7.024;2022-09-27T07:38:16;0.52;;;0.52;;
27163;SDS011;14685;50.618;7.024;2022-09-27T07:40:43;2.15;;;0.70;;
27163;SDS011;14685;50.618;7.024;2022-09-27T07:43:10;2.78;;;0.82;;
27163;SDS011;14685;50.618;7.024;2022-09-27T07:45:39;1.95;;;0.80;;
27163;SDS011;14685;50.618;7.024;2022-09-27T07:48:07;3.45;;;1.00;;
27163;SDS011;14685;50.618;7.024;2022-09-27T07:50:39;4.53;;;0.70;;
27163;SDS011;14685;50.618;7.024;2022-09-27T07:53:06;1.05;;;0.80;;
27163;SDS011;14685;50.618;7.024;2022-09-27T07:55:33;1.67;;;0.60;;
27163;SDS011;14685;50.618;7.024;2022-09-27T07:58:05;0.77;;;0.73;;
27163;SDS011;14685;50.618;7.024;2022-09-27T08:00:35;0.93;;;0.60;;
27163;SDS011;14685;50.618;7.024;2022-09-27T08:03:05;2.75;;;0.70;;
27163;SDS011;14685;50.618;7.024;2022-09-27T08:05:34;2.38;;;0.63;;
27163;SDS011;14685;50.618;7.024;2022-09-27T08:08:02;2.15;;;0.60;;
27163;SDS011;14685;50.618;7.024;2022-09-27T08:10:30;2.88;;;0.60;;
27163;SDS011;14685;50.618;7.024;2022-09-27T08:12:58;1.20;;;0.80;;
27163;SDS011;14685;50.618;7.024;2022-09-27T08:15:31;0.63;;;0.60;;
27163;SDS011;14685;50.618;7.024;2022-09-27T08:18:01;1.15;;;0.43;;
27163;SDS011;14685;50.618;7.024;2022-09-27T08:20:28;1.92;;;0.75;;
27163;SDS011;14685;50.618;7.024;2022-09-27T08:22:55;1.55;;;0.70;;
27163;SDS011;14685;50.618;7.024;2022-09-27T08:25:22;0.93;;;0.70;;
27163;SDS011;14685;50.618;7.024;2022-09-27T08:27:56;1.52;;;0.60;;
27163;SDS011;14685;50.618;7.024;2022-09-27T08:30:24;1.55;;;0.70;;
27163;SDS011;14685;50.618;7.024;2022-09-27T08:32:56;1.15;;;0.50;;
27163;SDS011;14685;50.618;7.024;2022-09-27T08:35:23;1.23;;;0.50;;
27163;SDS011;14685;50.618;7.024;2022-09-27T08:37:55;2.40;;;0.70;;
27163;SDS011;14685;50.618;7.024;2022-09-27T08:40:29;2.03;;;0.73;;
27163;SDS011;14685;50.618;7.024;2022-09-27T08:46:29;3.78;;;1.10;;
27163;SDS011;14685;50.618;7.024;2022-09-27T08:49:16;2.72;;;0.70;;
27163;SDS011;14685;50.618;7.024;2022-09-27T08:51:49;1.02;;;0.50;;
27163;SDS011;14685;50.618;7.024;2022-09-27T08:54:22;2.03;;;1.00;;
27163;SDS011;14685;50.618;7.024;2022-09-27T08:59:21;0.57;;;0.50;;
27163;SDS011;14685;50.618;7.024;2022-09-27T09:01:54;0.95;;;0.55;;
27163;SDS011;14685;50.618;7.024;2022-09-27T09:04:24;1.13;;;0.60;;
27163;SDS011;14685;50.618;7.024;2022-09-27T09:07:00;1.23;;;0.55;;
27163;SDS011;14685;50.618;7.024;2022-09-27T09:12:47;1.38;;;0.60;;
27163;SDS011;14685;50.618;7.024;2022-09-27T09:26:45;0.77;;;0.57;;
27163;SDS011;14685;50.618;7.024;2022-09-27T09:29:29;0.85;;;0.60;;
27163;SDS011;14685;50.618;7.024;2022-09-27T09:32:20;0.52;;;0.52;;
27163;SDS011;14685;50.618;7.024;2022-09-27T09:35:14;1.08;;;0.80;;
27163;SDS011;14685;50.618;7.024;2022-09-27T09:37:56;3.50;;;1.02;;
27163;SDS011;14685;50.618;7.024;2022-09-27T09:43:16;1.70;;;0.70;;
27163;SDS011;14685;50.618;7.024;2022-09-27T09:46:07;0.82;;;0.60;;
27163;SDS011;14685;50.618;7.024;2022-09-27T09:48:48;3.35;;;0.93;;
27163;SDS011;14685;50.618;7.024;2022-09-27T09:51:23;1.95;;;1.00;;
27163;SDS011;14685;50.618;7.024;2022-09-27T09:54:03;1.40;;;0.77;;
27163;SDS011;14685;50.618;7.024;2022-09-27T09:56:39;0.93;;;0.80;;
27163;SDS011;14685;50.618;7.024;2022-09-27T09:59:14;2.20;;;0.80;;
27163;SDS011;14685;50.618;7.024;2022-09-27T10:01:52;1.67;;;1.10;;
27163;SDS011;14685;50.618;7.024;2022-09-27T10:04:22;1.30;;;0.73;;
27163;SDS011;14685;50.618;7.024;2022-09-27T10:06:52;2.33;;;1.02;;
27163;SDS011;14685;50.618;7.024;2022-09-27T10:09:21;0.88;;;0.70;;
27163;SDS011;14685;50.618;7.024;2022-09-27T10:11:51;2.10;;;0.70;;
27163;SDS011;14685;50.618;7.024;2022-09-27T10:14:30;1.27;;;0.73;;
27163;SDS011;14685;50.618;7.024;2022-09-27T10:16:59;2.30;;;0.70;;
27163;SDS011;14685;50.618;7.024;2022-09-27T10:19:33;0.93;;;0.70;;
27163;SDS011;14685;50.618;7.024;2022-09-27T10:24:58;1.33;;;0.90;;
27163;SDS011;14685;50.618;7.024;2022-09-27T10:27:52;0.80;;;0.75;;
27163;SDS011;14685;50.618;7.024;2022-09-27T10:30:22;3.35;;;0.80;;
27163;SDS011;14685;50.618;7.024;2022-09-27T10:33:01;2.08;;;0.90;;
27163;SDS011;14685;50.618;7.024;2022-09-27T10:35:44;2.72;;;1.00;;
27163;SDS011;14685;50.618;7.024;2022-09-27T10:41:15;1.30;;;0.88;;
27163;SDS011;14685;50.618;7.024;2022-09-27T10:43:51;4.10;;;1.33;;
27163;SDS011;14685;50.618;7.024;2022-09-27T10:51:42;2.38;;;0.90;;
27163;SDS011;14685;50.618;7.024;2022-09-27T10:59:52;2.63;;;0.70;;
27163;SDS011;14685;50.618;7.024;2022-09-27T11:02:28;3.05;;;0.73;;
27163;SDS011;14685;50.618;7.024;2022-09-27T11:07:51;1.48;;;0.70;;
27163;SDS011;14685;50.618;7.024;2022-09-27T11:13:18;0.80;;;0.70;;
27163;SDS011;14685;50.618;7.024;2022-09-27T11:30:53;1.02;;;0.90;;
27163;SDS011;14685;50.618;7.024;2022-09-27T11:36:25;1.55;;;1.02;;
27163;SDS011;14685;50.618;7.024;2022-09-27T11:50:24;1.73;;;0.60;;
27163;SDS011;14685;50.618;7.024;2022-09-27T11:53:23;4.80;;;0.95;;
27163;SDS011;14685;50.618;7.024;2022-09-27T11:56:25;1.13;;;1.02;;
27163;SDS011;14685;50.618;7.024;2022-09-27T12:10:49;3.40;;;1.30;;
27163;SDS011;14685;50.618;7.024;2022-09-27T12:13:28;2.85;;;1.10;;
27163;SDS011;14685;50.618;7.024;2022-09-27T12:16:07;1.65;;;1.15;;
27163;SDS011;14685;50.618;7.024;2022-09-27T12:18:37;1.75;;;0.98;;
27163;SDS011;14685;50.618;7.024;2022-09-27T12:21:06;3.30;;;0.93;;
27163;SDS011;14685;50.618;7.024;2022-09-27T12:23:44;1.20;;;1.10;;
27163;SDS011;14685;50.618;7.024;2022-09-27T12:34:36;7.40;;;0.82;;
27163;SDS011;14685;50.618;7.024;2022-09-27T12:37:24;2.22;;;1.17;;
27163;SDS011;14685;50.618;7.024;2022-09-27T12:39:57;3.08;;;1.20;;
27163;SDS011;14685;50.618;7.024;2022-09-27T12:42:43;1.80;;;1.00;;
27163;SDS011;14685;50.618;7.024;2022-09-27T12:45:35;6.93;;;3.47;;
27163;SDS011;14685;50.618;7.024;2022-09-27T12:51:06;1.67;;;1.05;;
27163;SDS011;14685;50.618;7.024;2022-09-27T13:02:30;3.55;;;2.00;;
27163;SDS011;14685;50.618;7.024;2022-09-27T13:05:34;6.32;;;2.42;;
27163;SDS011;14685;50.618;7.024;2022-09-27T13:08:31;2.28;;;1.50;;
27163;SDS011;14685;50.618;7.024;2022-09-27T13:14:15;3.42;;;1.77;;
27163;SDS011;14685;50.618;7.024;2022-09-27T13:16:49;6.30;;;1.52;;
27163;SDS011;14685;50.618;7.024;2022-09-27T13:22:37;0.80;;;0.70;;
27163;SDS011;14685;50.618;7.024;2022-09-27T13:31:08;1.52;;;1.02;;
27163;SDS011;14685;50.618;7.024;2022-09-27T13:39:04;4.85;;;1.60;;
27163;SDS011;14685;50.618;7.024;2022-09-27T13:44:16;1.95;;;1.50;;
27163;SDS011;14685;50.618;7.024;2022-09-27T13:47:48;6.45;;;3.47;;
27163;SDS011;14685;50.618;7.024;2022-09-27T13:49:55;3.80;;;2.50;;
27163;SDS011;14685;50.618;7.024;2022-09-27T13:52:50;4.53;;;2.17;;
27163;SDS011;14685;50.618;7.024;2022-09-27T13:55:47;5.32;;;2.20;;
27163;SDS011;14685;50.618;7.024;2022-09-27T14:00:46;3.80;;;1.77;;
27163;SDS011;14685;50.618;7.024;2022-09-27T14:03:22;3.05;;;1.40;;
27163;SDS011;14685;50.618;7.024;2022-09-27T14:06:04;2.03;;;1.20;;
27163;SDS011;14685;50.618;7.024;2022-09-27T14:08:38;5.13;;;2.92;;
27163;SDS011;14685;50.618;7.024;2022-09-27T14:11:15;12.45;;;5.90;;
27163;SDS011;14685;50.618;7.024;2022-09-27T14:14:04;11.75;;;5.50;;
27163;SDS011;14685;50.618;7.024;2022-09-27T14:19:11;8.25;;;3.40;;
27163;SDS011;14685;50.618;7.024;2022-09-27T14:21:45;3.75;;;2.03;;
27163;SDS011;14685;50.618;7.024;2022-09-27T14:29:40;4.65;;;1.92;;
27163;SDS011;14685;50.618;7.024;2022-09-27T14:32:13;8.50;;;3.10;;
27163;SDS011;14685;50.618;7.024;2022-09-27T14:34:44;12.68;;;4.60;;
27163;SDS011;14685;50.618;7.024;2022-09-27T14:37:17;13.93;;;4.95;;
27163;SDS011;14685;50.618;7.024;2022-09-27T14:39:55;7.72;;;3.30;;
27163;SDS011;14685;50.618;7.024;2022-09-27T14:42:25;9.23;;;3.83;;
27163;SDS011;14685;50.618;7.024;2022-09-27T14:44:55;10.40;;;2.60;;
27163;SDS011;14685;50.618;7.024;2022-09-27T14:47:27;5.45;;;2.10;;
27163;SDS011;14685;50.618;7.024;2022-09-27T14:49:59;5.35;;;2.67;;
27163;SDS011;14685;50.618;7.024;2022-09-27T14:52:31;4.25;;;1.70;;
27163;SDS011;14685;50.618;7.024;2022-09-27T14:55:04;3.30;;;1.95;;
27163;SDS011;14685;50.618;7.024;2022-09-27T14:57:32;2.33;;;1.35;;
27163;SDS011;14685;50.618;7.024;2022-09-27T15:00:09;2.90;;;1.33;;
27163;SDS011;14685;50.618;7.024;2022-09-27T15:02:43;16.55;;;2.08;;
27163;SDS011;14685;50.618;7.024;2022-09-27T15:05:14;2.45;;;1.27;;
27163;SDS011;14685;50.618;7.024;2022-09-27T15:07:45;4.32;;;1.40;;
27163;SDS011;14685;50.618;7.024;2022-09-27T15:10:16;4.88;;;1.30;;
27163;SDS011;14685;50.618;7.024;2022-09-27T15:12:49;6.82;;;1.60;;
27163;SDS011;14685;50.618;7.024;2022-09-27T15:15:23;3.55;;;1.30;;
27163;SDS011;14685;50.618;7.024;2022-09-27T15:17:53;6.35;;;1.75;;
27163;SDS011;14685;50.618;7.024;2022-09-27T15:22:54;7.63;;;2.55;;
27163;SDS011;14685;50.618;7.024;2022-09-27T15:30:37;5.20;;;1.77;;
27163;SDS011;14685;50.618;7.024;2022-09-27T15:33:18;4.97;;;1.70;;
27163;SDS011;14685;50.618;7.024;2022-09-27T15:35:50;3.53;;;1.40;;
27163;SDS011;14685;50.618;7.024;2022-09-27T15:38:26;1.85;;;1.25;;
27163;SDS011;14685;50.618;7.024;2022-09-27T15:40:59;4.25;;;1.27;;
27163;SDS011;14685;50.618;7.024;2022-09-27T15:46:23;2.78;;;1.40;;
27163;SDS011;14685;50.618;7.024;2022-09-27T15:51:47;3.13;;;1.65;;
27163;SDS011;14685;50.618;7.024;2022-09-27T15:54:17;5.68;;;1.60;;
27163;SDS011;14685;50.618;7.024;2022-09-27T15:56:45;4.43;;;2.08;;
27163;SDS011;14685;50.618;7.024;2022-09-27T15:59:21;5.43;;;2.55;;
27163;SDS011;14685;50.618;7.024;2022-09-27T16:01:59;5.15;;;2.20;;
27163;SDS011;14685;50.618;7.024;2022-09-27T16:04:33;3.80;;;2.50;;
27163;SDS011;14685;50.618;7.024;2022-09-27T16:07:00;8.48;;;4.55;;
27163;SDS011;14685;50.618;7.024;2022-09-27T16:09:29;5.20;;;2.47;;
27163;SDS011;14685;50.618;7.024;2022-09-27T16:11:56;1.95;;;1.40;;
27163;SDS011;14685;50.618;7.024;2022-09-27T16:14:23;2.90;;;1.88;;
27163;SDS011;14685;50.618;7.024;2022-09-27T16:16:50;2.20;;;1.52;;
27163;SDS011;14685;50.618;7.024;2022-09-27T16:19:19;2.35;;;1.48;;
27163;SDS011;14685;50.618;7.024;2022-09-27T16:21:47;2.70;;;0.93;;
27163;SDS011;14685;50.618;7.024;2022-09-27T16:24:14;1.60;;;0.88;;
27163;SDS011;14685;50.618;7.024;2022-09-27T16:26:42;4.47;;;1.40;;
27163;SDS011;14685;50.618;7.024;2022-09-27T16:29:10;4.07;;;1.35;;
27163;SDS011;14685;50.618;7.024;2022-09-27T16:31:39;4.55;;;1.35;;
27163;SDS011;14685;50.618;7.024;2022-09-27T16:34:08;4.75;;;1.40;;
27163;SDS011;14685;50.618;7.024;2022-09-27T16:36:37;3.20;;;1.40;;
27163;SDS011;14685;50.618;7.024;2022-09-27T16:39:09;3.60;;;1.20;;
27163;SDS011;14685;50.618;7.024;2022-09-27T16:41:39;2.65;;;1.48;;
27163;SDS011;14685;50.618;7.024;2022-09-27T16:44:11;3.38;;;1.30;;
27163;SDS011;14685;50.618;7.024;2022-09-27T16:46:42;2.25;;;1.13;;
27163;SDS011;14685;50.618;7.024;2022-09-27T16:49:12;1.33;;;1.05;;
27163;SDS011;14685;50.618;7.024;2022-09-27T16:51:58;4.68;;;1.20;;
27163;SDS011;14685;50.618;7.024;2022-09-27T16:54:25;5.32;;;1.17;;
27163;SDS011;14685;50.618;7.024;2022-09-27T16:56:55;3.40;;;1.30;;
27163;SDS011;14685;50.618;7.024;2022-09-27T16:59:23;4.28;;;2.47;;
27163;SDS011;14685;50.618;7.024;2022-09-27T17:01:50;3.55;;;2.60;;
27163;SDS011;14685;50.618;7.024;2022-09-27T17:04:18;3.42;;;1.90;;
27163;SDS011;14685;50.618;7.024;2022-09-27T17:06:45;3.22;;;1.83;;
27163;SDS011;14685;50.618;7.024;2022-09-27T17:09:12;2.22;;;2.00;;
27163;SDS011;14685;50.618;7.024;2022-09-27T17:11:39;2.13;;;1.63;;
27163;SDS011;14685;50.618;7.024;2022-09-27T17:14:12;2.88;;;2.05;;
27163;SDS011;14685;50.618;7.024;2022-09-27T17:16:43;32.20;;;11.60;;
27163;SDS011;14685;50.618;7.024;2022-09-27T17:19:11;18.35;;;7.45;;
27163;SDS011;14685;50.618;7.024;2022-09-27T17:21:43;10.10;;;4.45;;
27163;SDS011;14685;50.618;7.024;2022-09-27T17:24:11;4.38;;;2.33;;
27163;SDS011;14685;50.618;7.024;2022-09-27T17:26:38;5.28;;;2.38;;
27163;SDS011;14685;50.618;7.024;2022-09-27T17:29:06;4.25;;;2.00;;
27163;SDS011;14685;50.618;7.024;2022-09-27T17:31:36;2.50;;;2.00;;
27163;SDS011;14685;50.618;7.024;2022-09-27T17:34:06;5.00;;;2.67;;
27163;SDS011;14685;50.618;7.024;2022-09-27T17:36:41;8.63;;;3.97;;
27163;SDS011;14685;50.618;7.024;2022-09-27T17:39:14;6.78;;;3.13;;
27163;SDS011;14685;50.618;7.024;2022-09-27T17:41:43;4.63;;;3.33;;
27163;SDS011;14685;50.618;7.024;2022-09-27T17:44:11;2.88;;;2.00;;
27163;SDS011;14685;50.618;7.024;2022-09-27T17:46:39;3.78;;;1.60;;
27163;SDS011;14685;50.618;7.024;2022-09-27T17:49:08;1.60;;;1.27;;
27163;SDS011;14685;50.618;7.024;2022-09-27T17:51:55;2.40;;;1.55;;
27163;SDS011;14685;50.618;7.024;2022-09-27T17:54:23;2.33;;;1.75;;
27163;SDS011;14685;50.618;7.024;2022-09-27T17:56:53;2.78;;;1.60;;
27163;SDS011;14685;50.618;7.024;2022-09-27T17:59:22;2.85;;;1.75;;
27163;SDS011;14685;50.618;7.024;2022-09-27T18:01:51;4.00;;;1.80;;
27163;SDS011;14685;50.618;7.024;2022-09-27T18:04:18;2.72;;;2.00;;
27163;SDS011;14685;50.618;7.024;2022-09-27T18:06:46;4.97;;;2.03;;
27163;SDS011;14685;50.618;7.024;2022-09-27T18:09:21;4.80;;;2.50;;
27163;SDS011;14685;50.618;7.024;2022-09-27T18:11:49;6.30;;;3.47;;
27163;SDS011;14685;50.618;7.024;2022-09-27T18:14:17;8.05;;;4.53;;
27163;SDS011;14685;50.618;7.024;2022-09-27T18:16:44;6.30;;;3.70;;
27163;SDS011;14685;50.618;7.024;2022-09-27T18:19:14;3.97;;;3.10;;
27163;SDS011;14685;50.618;7.024;2022-09-27T18:21:42;4.75;;;2.20;;
27163;SDS011;14685;50.618;7.024;2022-09-27T18:24:09;4.95;;;2.42;;
27163;SDS011;14685;50.618;7.024;2022-09-27T18:26:36;6.15;;;3.38;;
27163;SDS011;14685;50.618;7.024;2022-09-27T18:29:05;4.40;;;2.58;;
27163;SDS011;14685;50.618;7.024;2022-09-27T18:31:37;6.70;;;3.20;;